createdAt,value
2023-02-20T00:01:26.810Z,2.34
2023-02-20T00:03:53.308Z,2.19
2023-02-20T00:06:19.760Z,2.06
2023-02-20T00:08:46.107Z,2.20
2023-02-20T00:11:12.488Z,2.20
2023-02-20T00:13:38.872Z,2.09
2023-02-20T00:16:05.345Z,2.14
2023-02-20T00:18:31.922Z,2.04
2023-02-20T00:20:58.312Z,2.38
2023-02-20T00:23:24.714Z,2.96
2023-02-20T00:25:51.124Z,2.46
2023-02-20T00:28:17.481Z,2.62
2023-02-20T00:30:43.877Z,2.97
2023-02-20T00:33:10.452Z,2.43
2023-02-20T00:35:37.121Z,2.84
2023-02-20T00:38:03.844Z,2.60
2023-02-20T00:40:30.190Z,2.64
2023-02-20T00:42:56.558Z,2.62
2023-02-20T00:45:25.537Z,2.59
2023-02-20T00:47:51.871Z,2.53
2023-02-20T00:50:19.611Z,2.62
2023-02-20T00:52:45.978Z,2.90
2023-02-20T00:55:12.303Z,2.78
2023-02-20T00:57:38.876Z,2.92
2023-02-20T01:00:05.258Z,2.85
2023-02-20T01:02:31.646Z,2.90
2023-02-20T01:04:57.979Z,3.02
2023-02-20T01:07:24.379Z,3.16
2023-02-20T01:09:51.746Z,3.28
2023-02-20T01:12:18.088Z,3.14
2023-02-20T01:14:44.434Z,2.85
2023-02-20T01:17:10.790Z,2.99
2023-02-20T01:19:37.127Z,3.00
2023-02-20T01:22:03.504Z,3.20
2023-02-20T01:24:29.910Z,2.97
2023-02-20T01:26:57.322Z,2.98
2023-02-20T01:29:25.801Z,2.84
2023-02-20T01:31:52.301Z,3.09
2023-02-20T01:34:18.900Z,3.03
2023-02-20T01:36:45.234Z,3.34
2023-02-20T01:39:11.616Z,3.21
2023-02-20T01:41:40.169Z,2.99
2023-02-20T01:44:06.543Z,2.52
2023-02-20T01:46:32.946Z,2.78
2023-02-20T01:49:01.437Z,2.67
2023-02-20T01:51:27.772Z,2.51
2023-02-20T01:53:54.107Z,3.07
2023-02-20T01:56:20.649Z,2.80
2023-02-20T01:58:47.044Z,2.73
2023-02-20T02:01:13.496Z,2.65
2023-02-20T02:03:39.835Z,2.76
2023-02-20T02:06:06.204Z,2.82
2023-02-20T02:08:32.568Z,2.97
2023-02-20T02:10:58.908Z,2.61
2023-02-20T02:13:25.506Z,2.45
2023-02-20T02:15:51.926Z,2.91
2023-02-20T02:18:18.274Z,4.07
2023-02-20T02:20:44.701Z,3.37
2023-02-20T02:23:11.095Z,3.33
2023-02-20T02:25:37.443Z,3.22
2023-02-20T02:28:11.268Z,3.50
2023-02-20T02:30:37.800Z,3.14
2023-02-20T02:33:04.168Z,2.91
2023-02-20T02:35:30.520Z,3.26
2023-02-20T02:37:57.049Z,3.08
2023-02-20T02:40:23.728Z,3.19
2023-02-20T02:42:50.078Z,3.26
2023-02-20T02:45:16.604Z,2.84
2023-02-20T02:47:43.536Z,2.92
2023-02-20T02:50:10.156Z,3.20
2023-02-20T02:52:36.530Z,3.22
2023-02-20T02:55:03.026Z,3.16
2023-02-20T02:57:29.495Z,3.08
2023-02-20T02:59:56.198Z,3.15
2023-02-20T03:02:26.993Z,3.06
2023-02-20T03:04:53.697Z,3.08
2023-02-20T03:07:20.049Z,3.01
2023-02-20T03:09:46.418Z,3.10
2023-02-20T03:12:12.760Z,3.59
2023-02-20T03:14:40.176Z,3.35
2023-02-20T03:17:06.620Z,3.17
2023-02-20T03:19:33.273Z,3.02
2023-02-20T03:21:59.918Z,3.04
2023-02-20T03:24:28.623Z,3.11
2023-02-20T03:26:55.289Z,3.09
2023-02-20T03:29:21.678Z,3.38
2023-02-20T03:31:49.208Z,3.38
2023-02-20T03:34:17.654Z,3.75
2023-02-20T03:36:44.051Z,3.82
2023-02-20T03:39:11.725Z,3.58
2023-02-20T03:41:38.121Z,3.69
2023-02-20T03:44:04.624Z,3.29
2023-02-20T03:46:31.339Z,3.17
2023-02-20T03:48:57.715Z,3.17
2023-02-20T03:51:24.132Z,3.18
2023-02-20T03:53:50.513Z,3.20
2023-02-20T03:56:16.870Z,3.05
2023-02-20T03:58:43.546Z,3.42
2023-02-20T04:01:12.049Z,2.92
2023-02-20T04:03:38.474Z,2.54
2023-02-20T04:06:04.886Z,2.75
2023-02-20T04:08:33.602Z,3.24
2023-02-20T04:10:59.964Z,3.13
2023-02-20T04:13:26.305Z,3.39
2023-02-20T04:15:52.642Z,3.21
2023-02-20T04:18:18.990Z,3.14
2023-02-20T04:20:45.766Z,3.33
2023-02-20T04:23:12.134Z,3.41
2023-02-20T04:25:39.205Z,4.01
2023-02-20T04:28:05.549Z,4.34
2023-02-20T04:30:31.967Z,3.68
2023-02-20T04:32:58.383Z,3.71
2023-02-20T04:35:24.778Z,3.98
2023-02-20T04:37:51.154Z,3.61
2023-02-20T04:40:17.539Z,4.52
2023-02-20T04:42:43.872Z,5.08
2023-02-20T04:45:10.251Z,3.79
2023-02-20T04:47:36.802Z,3.76
2023-02-20T04:50:03.148Z,3.67
2023-02-20T04:52:29.709Z,3.39
2023-02-20T04:54:56.308Z,3.39
2023-02-20T04:57:23.711Z,3.16
2023-02-20T04:59:50.085Z,3.32
2023-02-20T05:02:16.526Z,3.39
2023-02-20T05:04:43.021Z,3.36
2023-02-20T05:07:09.423Z,3.39
2023-02-20T05:09:35.984Z,3.52
2023-02-20T05:12:02.363Z,3.29
2023-02-20T05:14:28.745Z,3.53
2023-02-20T05:16:55.106Z,3.47
2023-02-20T05:19:21.651Z,3.64
2023-02-20T05:21:48.038Z,3.56
2023-02-20T05:24:14.435Z,3.63
2023-02-20T05:26:40.852Z,3.52
2023-02-20T05:29:07.254Z,3.59
2023-02-20T05:31:33.692Z,3.60
2023-02-20T05:34:00.143Z,3.38
2023-02-20T05:36:26.490Z,3.24
2023-02-20T05:38:52.876Z,3.11
2023-02-20T05:41:19.236Z,3.15
2023-02-20T05:43:45.949Z,3.85
2023-02-20T05:46:12.839Z,3.38
2023-02-20T05:48:39.363Z,3.49
2023-02-20T05:51:05.733Z,3.40
2023-02-20T05:53:32.112Z,3.20
2023-02-20T05:55:58.481Z,3.38
2023-02-20T05:58:24.870Z,3.68
2023-02-20T06:00:52.219Z,3.63
2023-02-20T06:03:18.821Z,3.97
2023-02-20T06:05:49.684Z,3.69
2023-02-20T06:08:16.182Z,3.44
2023-02-20T06:10:42.557Z,3.60
2023-02-20T06:13:08.954Z,3.64
2023-02-20T06:15:35.329Z,3.47
2023-02-20T06:18:01.714Z,3.55
2023-02-20T06:20:28.150Z,3.47
2023-02-20T06:22:55.540Z,3.39
2023-02-20T06:25:21.900Z,3.55
2023-02-20T06:27:48.279Z,4.36
2023-02-20T06:30:14.653Z,4.05
2023-02-20T06:32:43.572Z,3.87
2023-02-20T06:35:11.287Z,4.13
2023-02-20T06:37:37.718Z,3.98
2023-02-20T06:40:04.360Z,4.84
2023-02-20T06:42:30.963Z,6.06
2023-02-20T06:44:57.309Z,3.97
2023-02-20T06:47:23.811Z,3.75
2023-02-20T06:49:50.223Z,3.97
2023-02-20T06:52:16.612Z,3.95
2023-02-20T06:54:43.216Z,4.29
2023-02-20T06:57:10.815Z,4.40
2023-02-20T06:59:39.521Z,4.19
2023-02-20T07:02:09.328Z,4.47
2023-02-20T07:04:36.304Z,4.18
2023-02-20T07:07:03.658Z,3.78
2023-02-20T07:09:30.087Z,3.92
2023-02-20T07:11:56.939Z,3.92
2023-02-20T07:14:23.326Z,3.90
2023-02-20T07:16:50.837Z,4.17
2023-02-20T07:19:17.253Z,4.18
2023-02-20T07:21:45.700Z,4.05
2023-02-20T07:24:12.678Z,3.97
2023-02-20T07:26:39.056Z,4.29
2023-02-20T07:29:06.406Z,4.11
2023-02-20T07:31:36.024Z,4.32
2023-02-20T07:34:02.479Z,4.75
2023-02-20T07:36:28.895Z,4.94
2023-02-20T07:38:55.279Z,5.35
2023-02-20T07:41:21.643Z,5.64
2023-02-20T07:43:48.054Z,4.72
2023-02-20T07:46:14.818Z,5.03
2023-02-20T07:48:41.553Z,5.34
2023-02-20T07:51:13.559Z,5.58
2023-02-20T07:53:40.009Z,5.18
2023-02-20T07:56:06.384Z,5.70
2023-02-20T07:58:32.872Z,5.63
2023-02-20T08:01:00.249Z,5.65
2023-02-20T08:03:29.028Z,5.01
2023-02-20T08:05:55.448Z,4.94
2023-02-20T08:08:24.008Z,5.05
2023-02-20T08:10:57.015Z,4.90
2023-02-20T08:13:26.435Z,5.01
2023-02-20T08:15:53.199Z,5.19
2023-02-20T08:18:23.865Z,5.11
2023-02-20T08:20:50.700Z,4.74
2023-02-20T08:23:17.081Z,5.29
2023-02-20T08:25:43.483Z,5.87
2023-02-20T08:28:09.835Z,5.57
2023-02-20T08:30:36.212Z,5.34
2023-02-20T08:33:02.779Z,5.31
2023-02-20T08:35:29.155Z,5.30
2023-02-20T08:37:55.530Z,5.53
2023-02-20T08:40:23.298Z,5.96
2023-02-20T08:42:49.658Z,6.29
2023-02-20T08:45:16.073Z,6.99
2023-02-20T08:47:42.547Z,7.36
2023-02-20T08:50:09.041Z,7.37
2023-02-20T08:52:35.937Z,6.87
2023-02-20T08:55:02.349Z,6.95
2023-02-20T08:57:28.702Z,6.43
2023-02-20T08:59:55.433Z,5.98
2023-02-20T09:02:22.034Z,6.05
2023-02-20T09:04:48.550Z,6.08
2023-02-20T09:07:15.021Z,5.69
2023-02-20T09:09:41.619Z,5.88
2023-02-20T09:12:08.161Z,5.83
2023-02-20T09:14:37.261Z,5.71
2023-02-20T09:17:04.335Z,5.62
2023-02-20T09:19:33.208Z,5.84
2023-02-20T09:22:01.944Z,5.85
2023-02-20T09:24:28.390Z,5.87
2023-02-20T09:26:56.876Z,6.55
2023-02-20T09:29:23.350Z,5.74
2023-02-20T09:31:49.870Z,5.86
2023-02-20T09:34:16.326Z,5.66
2023-02-20T09:36:42.818Z,5.61
2023-02-20T09:39:09.693Z,6.64
2023-02-20T09:41:36.106Z,5.81
2023-02-20T09:44:02.811Z,5.71
2023-02-20T09:46:29.163Z,5.63
2023-02-20T09:48:55.510Z,5.63
2023-02-20T09:51:21.968Z,5.90
2023-02-20T09:53:48.551Z,5.55
2023-02-20T09:56:15.057Z,5.35
2023-02-20T09:58:41.420Z,5.64
2023-02-20T10:01:07.950Z,5.88
2023-02-20T10:03:34.608Z,5.76
2023-02-20T10:06:00.949Z,6.14
2023-02-20T10:08:27.416Z,6.53
2023-02-20T10:10:54.319Z,6.44
2023-02-20T10:13:20.911Z,6.10
2023-02-20T10:15:49.648Z,6.35
2023-02-20T10:18:16.462Z,6.14
2023-02-20T10:20:42.844Z,5.95
2023-02-20T10:23:09.229Z,6.00
2023-02-20T10:25:35.560Z,6.67
2023-02-20T10:28:02.348Z,6.62
2023-02-20T10:30:30.789Z,5.88
2023-02-20T10:32:57.179Z,6.09
2023-02-20T10:35:23.599Z,6.12
2023-02-20T10:37:50.532Z,6.32
2023-02-20T10:40:17.248Z,6.62
2023-02-20T10:42:43.970Z,6.35
2023-02-20T10:45:10.466Z,5.98
2023-02-20T10:47:37.469Z,6.06
2023-02-20T10:50:03.877Z,6.10
2023-02-20T10:52:34.507Z,6.28
2023-02-20T10:55:01.253Z,7.03
2023-02-20T10:57:27.798Z,5.92
2023-02-20T10:59:54.535Z,5.88
2023-02-20T11:02:21.038Z,5.92
2023-02-20T11:04:48.562Z,5.93
2023-02-20T11:07:15.222Z,5.82
2023-02-20T11:09:42.613Z,5.50
2023-02-20T11:12:09.271Z,5.56
2023-02-20T11:14:41.719Z,5.95
2023-02-20T11:17:08.419Z,5.48
2023-02-20T11:19:34.813Z,5.48
2023-02-20T11:22:01.196Z,5.75
2023-02-20T11:24:27.546Z,5.64
2023-02-20T11:26:54.091Z,5.30
2023-02-20T11:29:20.596Z,4.96
2023-02-20T11:31:47.098Z,5.44
2023-02-20T11:34:19.090Z,5.74
2023-02-20T11:36:46.020Z,5.90
2023-02-20T11:39:12.407Z,5.61
2023-02-20T11:41:38.788Z,5.59
2023-02-20T11:44:05.575Z,5.54
2023-02-20T11:46:31.968Z,5.54
2023-02-20T11:48:58.342Z,5.27
2023-02-20T11:51:24.837Z,5.60
2023-02-20T11:53:51.273Z,5.57
2023-02-20T11:56:17.972Z,5.34
2023-02-20T11:58:45.347Z,5.46
2023-02-20T12:01:11.779Z,5.30
2023-02-20T12:03:38.482Z,5.47
2023-02-20T12:06:06.538Z,5.42
2023-02-20T12:08:32.998Z,5.57
2023-02-20T12:10:59.514Z,5.48
2023-02-20T12:13:25.916Z,5.87
2023-02-20T12:15:52.266Z,5.81
2023-02-20T12:18:18.916Z,5.91
2023-02-20T12:20:46.280Z,5.13
2023-02-20T12:23:12.664Z,5.48
2023-02-20T12:25:39.058Z,5.77
2023-02-20T12:28:05.556Z,5.37
2023-02-20T12:30:32.022Z,5.45
2023-02-20T12:32:58.475Z,5.29
2023-02-20T12:35:24.979Z,5.93
2023-02-20T12:37:58.584Z,5.73
2023-02-20T12:40:24.939Z,6.41
2023-02-20T12:42:51.328Z,6.09
2023-02-20T12:45:18.045Z,5.49
2023-02-20T12:47:44.397Z,5.63
2023-02-20T12:50:11.174Z,5.61
2023-02-20T12:52:37.730Z,5.58
2023-02-20T12:55:04.222Z,6.06
2023-02-20T12:57:32.596Z,5.58
2023-02-20T12:59:58.957Z,5.57
2023-02-20T13:02:39.373Z,5.89
2023-02-20T13:05:07.272Z,6.40
2023-02-20T13:07:33.604Z,6.00
2023-02-20T13:10:00.780Z,6.30
2023-02-20T13:12:27.127Z,6.24
2023-02-20T13:14:53.519Z,6.18
2023-02-20T13:17:19.922Z,6.25
2023-02-20T13:19:46.547Z,6.49
2023-02-20T13:22:13.380Z,6.56
2023-02-20T13:24:39.731Z,6.70
2023-02-20T13:27:06.063Z,7.83
2023-02-20T13:29:32.722Z,7.01
2023-02-20T13:32:02.006Z,6.50
2023-02-20T13:34:28.581Z,7.28
2023-02-20T13:36:55.241Z,6.31
2023-02-20T13:39:21.636Z,6.89
2023-02-20T13:41:47.981Z,6.80
2023-02-20T13:44:14.399Z,7.36
2023-02-20T13:46:40.763Z,6.88
2023-02-20T13:49:07.236Z,13.29
2023-02-20T13:51:33.595Z,9.24
2023-02-20T13:54:02.299Z,6.70
2023-02-20T13:56:28.790Z,6.87
2023-02-20T13:58:55.180Z,7.04
2023-02-20T14:01:21.704Z,7.28
2023-02-20T14:03:48.418Z,7.13
2023-02-20T14:06:15.116Z,7.12
2023-02-20T14:08:41.730Z,7.36
2023-02-20T14:11:08.169Z,7.31
2023-02-20T14:13:40.439Z,7.39
2023-02-20T14:16:07.169Z,7.07
2023-02-20T14:18:33.548Z,7.15
2023-02-20T14:20:59.974Z,7.87
2023-02-20T14:23:26.682Z,7.50
2023-02-20T14:26:00.172Z,7.24
2023-02-20T14:28:28.778Z,7.59
2023-02-20T14:30:55.205Z,7.46
2023-02-20T14:33:21.747Z,8.04
2023-02-20T14:35:48.201Z,7.74
2023-02-20T14:38:16.029Z,7.85
2023-02-20T14:40:42.693Z,8.11
2023-02-20T14:43:09.011Z,8.00
2023-02-20T14:45:35.449Z,8.12
2023-02-20T14:48:02.105Z,8.96
2023-02-20T14:50:29.537Z,8.53
2023-02-20T14:52:55.899Z,9.95
2023-02-20T14:55:22.243Z,8.27
2023-02-20T14:57:48.636Z,8.77
2023-02-20T15:00:14.974Z,8.35
2023-02-20T15:02:41.402Z,8.21
2023-02-20T15:05:07.790Z,8.21
2023-02-20T15:07:34.218Z,8.62
2023-02-20T15:10:00.610Z,8.13
2023-02-20T15:12:27.139Z,8.17
2023-02-20T15:14:53.696Z,8.58
2023-02-20T15:17:20.173Z,8.26
2023-02-20T15:19:46.514Z,8.07
2023-02-20T15:22:13.014Z,8.12
2023-02-20T15:24:39.461Z,8.30
2023-02-20T15:27:05.840Z,7.89
2023-02-20T15:29:32.513Z,7.83
2023-02-20T15:31:58.990Z,7.96
2023-02-20T15:34:25.443Z,8.04
2023-02-20T15:36:52.021Z,7.98
2023-02-20T15:39:18.386Z,7.88
2023-02-20T15:41:46.890Z,8.29
2023-02-20T15:44:13.290Z,8.33
2023-02-20T15:46:39.905Z,8.18
2023-02-20T15:49:07.252Z,8.56
2023-02-20T15:51:34.095Z,7.67
2023-02-20T15:54:00.500Z,7.78
2023-02-20T15:56:27.000Z,7.69
2023-02-20T15:58:53.390Z,7.83
2023-02-20T16:01:19.841Z,7.90
2023-02-20T16:03:52.082Z,7.85
2023-02-20T16:06:19.113Z,7.54
2023-02-20T16:08:45.744Z,7.77
2023-02-20T16:11:12.356Z,8.19
2023-02-20T16:13:38.855Z,8.03
2023-02-20T16:16:07.401Z,7.63
2023-02-20T16:18:35.952Z,7.78
2023-02-20T16:21:02.502Z,8.04
2023-02-20T16:23:29.023Z,7.60
2023-02-20T16:25:55.500Z,8.15
2023-02-20T16:28:21.876Z,8.08
2023-02-20T16:30:48.768Z,7.98
2023-02-20T16:33:15.208Z,7.90
2023-02-20T16:35:41.618Z,8.50
2023-02-20T16:38:08.320Z,8.48
2023-02-20T16:40:34.684Z,8.26
2023-02-20T16:43:02.161Z,8.52
2023-02-20T16:45:28.553Z,8.35
2023-02-20T16:47:55.127Z,8.34
2023-02-20T16:50:21.516Z,8.59
2023-02-20T16:52:50.290Z,8.54
2023-02-20T16:55:17.330Z,8.73
2023-02-20T16:57:43.676Z,8.80
2023-02-20T17:00:17.761Z,8.03
2023-02-20T17:02:46.345Z,8.42
2023-02-20T17:05:12.964Z,8.00
2023-02-20T17:07:42.151Z,7.68
2023-02-20T17:10:08.549Z,7.93
2023-02-20T17:12:34.952Z,7.84
2023-02-20T17:15:01.378Z,7.91
2023-02-20T17:17:28.069Z,7.88
2023-02-20T17:19:54.876Z,8.04
2023-02-20T17:22:21.243Z,7.91
2023-02-20T17:24:49.739Z,7.83
2023-02-20T17:27:18.700Z,8.43
2023-02-20T17:29:45.355Z,8.37
2023-02-20T17:32:11.794Z,8.71
2023-02-20T17:34:38.202Z,8.59
2023-02-20T17:37:04.580Z,8.78
2023-02-20T17:39:30.949Z,9.69
2023-02-20T17:41:57.834Z,9.58
2023-02-20T17:44:26.919Z,9.92
2023-02-20T17:46:56.004Z,10.59
2023-02-20T17:49:22.769Z,9.81
2023-02-20T17:51:49.380Z,10.21
2023-02-20T17:54:15.703Z,11.38
2023-02-20T17:56:42.091Z,10.35
2023-02-20T17:59:08.878Z,10.14
2023-02-20T18:01:36.378Z,10.33
2023-02-20T18:04:03.003Z,10.94
2023-02-20T18:06:29.635Z,11.59
2023-02-20T18:08:56.038Z,12.72
2023-02-20T18:11:22.535Z,12.10
2023-02-20T18:13:51.305Z,11.11
2023-02-20T18:16:17.744Z,10.22
2023-02-20T18:18:44.141Z,10.35
2023-02-20T18:21:11.468Z,10.75
2023-02-20T18:23:40.442Z,10.73
2023-02-20T18:26:07.347Z,12.30
2023-02-20T18:28:33.971Z,10.43
2023-02-20T18:31:00.304Z,10.58
2023-02-20T18:33:26.697Z,10.24
2023-02-20T18:36:07.066Z,10.01
2023-02-20T18:38:34.124Z,10.30
2023-02-20T18:41:00.801Z,10.27
2023-02-20T18:43:29.246Z,9.88
2023-02-20T18:45:55.645Z,10.18
2023-02-20T18:48:22.011Z,10.36
2023-02-20T18:50:48.861Z,10.32
2023-02-20T18:53:15.197Z,10.12
2023-02-20T18:55:41.649Z,9.90
2023-02-20T18:58:08.071Z,9.99
2023-02-20T19:00:34.783Z,10.42
2023-02-20T19:03:01.179Z,10.38
2023-02-20T19:05:27.593Z,10.80
2023-02-20T19:07:53.939Z,10.74
2023-02-20T19:10:22.600Z,10.67
2023-02-20T19:12:51.052Z,9.96
2023-02-20T19:15:17.889Z,10.46
2023-02-20T19:17:44.541Z,10.63
2023-02-20T19:20:10.941Z,11.63
2023-02-20T19:22:37.630Z,11.55
2023-02-20T19:25:04.049Z,11.52
2023-02-20T19:27:30.485Z,11.12
2023-02-20T19:29:57.281Z,10.85
2023-02-20T19:32:23.750Z,11.28
2023-02-20T19:34:50.202Z,10.54
2023-02-20T19:37:16.653Z,11.89
2023-02-20T19:39:43.221Z,13.55
2023-02-20T19:42:09.617Z,12.07
2023-02-20T19:44:36.314Z,12.38
2023-02-20T19:47:02.657Z,11.23
2023-02-20T19:49:34.277Z,10.39
2023-02-20T19:52:00.658Z,10.78
2023-02-20T19:54:27.105Z,10.61
2023-02-20T19:56:55.833Z,10.46
2023-02-20T19:59:22.219Z,10.60
2023-02-20T20:01:49.712Z,10.40
2023-02-20T20:04:17.245Z,10.27
2023-02-20T20:06:44.654Z,9.84
2023-02-20T20:09:16.655Z,9.24
2023-02-20T20:11:45.411Z,9.11
2023-02-20T20:14:12.821Z,9.40
2023-02-20T20:16:39.256Z,9.49
2023-02-20T20:19:05.630Z,9.22
2023-02-20T20:21:32.132Z,9.76
2023-02-20T20:23:59.410Z,9.62
2023-02-20T20:26:25.960Z,8.93
2023-02-20T20:28:52.478Z,9.08
2023-02-20T20:31:21.512Z,8.72
2023-02-20T20:33:49.038Z,8.95
2023-02-20T20:36:16.402Z,9.51
2023-02-20T20:38:42.871Z,9.12
2023-02-20T20:41:09.361Z,10.21
2023-02-20T20:43:35.927Z,11.89
2023-02-20T20:46:02.681Z,12.76
2023-02-20T20:48:29.419Z,12.92
2023-02-20T20:50:58.533Z,11.66
2023-02-20T20:53:24.887Z,10.96
2023-02-20T20:55:51.471Z,9.18
2023-02-20T20:58:20.364Z,8.47
2023-02-20T21:00:46.934Z,9.76
2023-02-20T21:03:13.328Z,9.50
2023-02-20T21:05:41.356Z,9.74
2023-02-20T21:08:08.713Z,10.04
2023-02-20T21:10:35.183Z,9.91
2023-02-20T21:13:01.596Z,9.98
2023-02-20T21:15:28.015Z,10.21
2023-02-20T21:17:55.464Z,10.62
2023-02-20T21:20:22.826Z,10.73
2023-02-20T21:22:49.497Z,10.51
2023-02-20T21:25:15.888Z,10.01
2023-02-20T21:27:42.249Z,9.28
2023-02-20T21:30:10.762Z,8.92
2023-02-20T21:32:37.488Z,8.20
2023-02-20T21:35:03.918Z,7.84
2023-02-20T21:37:30.255Z,8.04
2023-02-20T21:39:59.129Z,7.86
2023-02-20T21:42:25.683Z,7.69
2023-02-20T21:44:52.103Z,6.82
2023-02-20T21:47:18.436Z,6.46
2023-02-20T21:49:48.959Z,6.70
2023-02-20T21:52:15.447Z,6.56
2023-02-20T21:54:41.834Z,6.14
2023-02-20T21:57:08.517Z,6.30
2023-02-20T21:59:35.060Z,6.26
2023-02-20T22:02:01.419Z,6.06
2023-02-20T22:04:30.908Z,6.24
2023-02-20T22:06:57.290Z,6.02
2023-02-20T22:09:23.666Z,6.52
2023-02-20T22:11:50.049Z,6.36
2023-02-20T22:14:16.410Z,6.32
2023-02-20T22:16:43.032Z,6.74
2023-02-20T22:19:09.368Z,7.11
2023-02-20T22:21:35.773Z,7.36
2023-02-20T22:24:02.174Z,6.99
2023-02-20T22:26:30.697Z,6.58
2023-02-20T22:28:57.187Z,6.28
2023-02-20T22:31:23.566Z,6.58
2023-02-20T22:33:49.952Z,6.89
2023-02-20T22:36:16.455Z,6.56
2023-02-20T22:38:44.927Z,6.24
2023-02-20T22:41:11.340Z,6.34
2023-02-20T22:43:37.977Z,7.00
2023-02-20T22:46:06.523Z,6.61
2023-02-20T22:48:32.893Z,6.26
2023-02-20T22:50:59.308Z,6.15
2023-02-20T22:53:25.654Z,6.14
2023-02-20T22:55:52.352Z,6.72
2023-02-20T22:58:19.769Z,7.07
2023-02-20T23:00:46.501Z,7.02
2023-02-20T23:03:13.138Z,6.62
2023-02-20T23:05:40.566Z,6.47
2023-02-20T23:08:06.920Z,6.54
2023-02-20T23:10:33.387Z,6.12
2023-02-20T23:13:00.102Z,5.63
2023-02-20T23:15:26.451Z,5.82
2023-02-20T23:17:53.139Z,5.73
2023-02-20T23:20:19.544Z,5.20
2023-02-20T23:22:45.956Z,5.22
2023-02-20T23:25:12.475Z,5.42
2023-02-20T23:27:38.874Z,5.08
2023-02-20T23:30:05.354Z,5.39
2023-02-20T23:32:34.086Z,5.78
2023-02-20T23:35:00.575Z,5.76
2023-02-20T23:37:26.910Z,5.46
2023-02-20T23:39:53.247Z,5.65
2023-02-20T23:42:19.652Z,5.81
2023-02-20T23:44:46.054Z,5.23
2023-02-20T23:47:14.772Z,5.32
2023-02-20T23:49:41.185Z,5.02
2023-02-20T23:52:15.993Z,5.46
2023-02-20T23:54:43.085Z,5.09
2023-02-20T23:57:09.532Z,5.19
2023-02-20T23:59:35.916Z,5.22
